Epworth, Kentucky
Current Conditions -  °F | °C
As of 6:55 PM on Monday 20 Oct 2014 (Local Time) from KFGX Reporting Station
Broken Clouds Broken Clouds  
Wind Chill: 57°   Ceiling: 3700
Heat Index: 57°   Visibility: 10mi
Dew Point: 46°   Wind: 6mph
Humidity: 68%   Direction: 210°SSW
Pressure: 29.92"   Gusts: NA
Location:  38.5845°N, 83.5468°W
Report Text: KFGX 202255Z AUTO 21005KT 10SM BKN037 BKN045 14/08 A2992 RMK AO2 T01380079
Loading
Personal Weather Stations






























Interactive Weather Map
Tropical Storm Tracking
New forecast layout! Learn more

10-Day Weather Forecast

Advertisements
Track Severe Weather on mobile